sensor_id;sensor_type;location;lat;lon;timestamp;P1;durP1;ratioP1;P2;durP2;ratioP2
9948;SDS011;5013;51.840;8.276;2024-03-08T00:01:12;31.97;;;23.47;;
9948;SDS011;5013;51.840;8.276;2024-03-08T00:03:37;31.57;;;23.80;;
9948;SDS011;5013;51.840;8.276;2024-03-08T00:06:05;35.33;;;24.43;;
9948;SDS011;5013;51.840;8.276;2024-03-08T00:08:31;32.23;;;24.40;;
9948;SDS011;5013;51.840;8.276;2024-03-08T00:10:56;33.83;;;24.43;;
9948;SDS011;5013;51.840;8.276;2024-03-08T00:13:22;33.70;;;23.33;;
9948;SDS011;5013;51.840;8.276;2024-03-08T00:15:50;29.23;;;22.90;;
9948;SDS011;5013;51.840;8.276;2024-03-08T00:18:15;32.33;;;24.93;;
9948;SDS011;5013;51.840;8.276;2024-03-08T00:20:41;33.53;;;25.13;;
9948;SDS011;5013;51.840;8.276;2024-03-08T00:23:08;30.80;;;23.00;;
9948;SDS011;5013;51.840;8.276;2024-03-08T00:25:35;30.73;;;23.53;;
9948;SDS011;5013;51.840;8.276;2024-03-08T00:28:01;30.77;;;23.27;;
9948;SDS011;5013;51.840;8.276;2024-03-08T00:30:26;30.63;;;24.47;;
9948;SDS011;5013;51.840;8.276;2024-03-08T00:32:52;32.07;;;25.70;;
9948;SDS011;5013;51.840;8.276;2024-03-08T00:35:18;32.73;;;24.60;;
9948;SDS011;5013;51.840;8.276;2024-03-08T00:37:43;32.07;;;24.07;;
9948;SDS011;5013;51.840;8.276;2024-03-08T00:40:11;33.77;;;24.37;;
9948;SDS011;5013;51.840;8.276;2024-03-08T00:42:37;33.70;;;24.83;;
9948;SDS011;5013;51.840;8.276;2024-03-08T00:45:04;32.57;;;24.00;;
9948;SDS011;5013;51.840;8.276;2024-03-08T00:47:30;29.97;;;24.33;;
9948;SDS011;5013;51.840;8.276;2024-03-08T00:49:56;36.30;;;26.40;;
9948;SDS011;5013;51.840;8.276;2024-03-08T00:52:21;33.13;;;25.20;;
9948;SDS011;5013;51.840;8.276;2024-03-08T00:54:49;32.10;;;25.33;;
9948;SDS011;5013;51.840;8.276;2024-03-08T00:57:14;31.83;;;24.73;;
9948;SDS011;5013;51.840;8.276;2024-03-08T00:59:40;38.20;;;26.47;;
9948;SDS011;5013;51.840;8.276;2024-03-08T01:02:05;39.50;;;27.07;;
9948;SDS011;5013;51.840;8.276;2024-03-08T01:04:31;36.97;;;26.80;;
9948;SDS011;5013;51.840;8.276;2024-03-08T01:06:58;30.93;;;24.60;;
9948;SDS011;5013;51.840;8.276;2024-03-08T01:09:24;37.67;;;26.57;;
9948;SDS011;5013;51.840;8.276;2024-03-08T01:11:51;34.30;;;26.00;;
9948;SDS011;5013;51.840;8.276;2024-03-08T01:14:19;36.03;;;25.50;;
9948;SDS011;5013;51.840;8.276;2024-03-08T01:16:47;38.20;;;28.00;;
9948;SDS011;5013;51.840;8.276;2024-03-08T01:19:13;35.97;;;26.77;;
9948;SDS011;5013;51.840;8.276;2024-03-08T01:21:38;36.23;;;27.07;;
9948;SDS011;5013;51.840;8.276;2024-03-08T01:24:04;38.97;;;26.27;;
9948;SDS011;5013;51.840;8.276;2024-03-08T01:26:30;36.40;;;27.60;;
9948;SDS011;5013;51.840;8.276;2024-03-08T01:28:56;38.80;;;29.13;;
9948;SDS011;5013;51.840;8.276;2024-03-08T01:31:21;34.57;;;26.20;;
9948;SDS011;5013;51.840;8.276;2024-03-08T01:33:47;43.97;;;29.20;;
9948;SDS011;5013;51.840;8.276;2024-03-08T01:36:13;38.57;;;28.37;;
9948;SDS011;5013;51.840;8.276;2024-03-08T01:38:40;38.20;;;26.83;;
9948;SDS011;5013;51.840;8.276;2024-03-08T01:41:07;36.00;;;27.67;;
9948;SDS011;5013;51.840;8.276;2024-03-08T01:43:34;36.30;;;27.60;;
9948;SDS011;5013;51.840;8.276;2024-03-08T01:45:59;38.43;;;28.40;;
9948;SDS011;5013;51.840;8.276;2024-03-08T01:48:26;39.60;;;27.83;;
9948;SDS011;5013;51.840;8.276;2024-03-08T01:50:53;38.10;;;27.30;;
9948;SDS011;5013;51.840;8.276;2024-03-08T01:53:20;37.30;;;27.73;;
9948;SDS011;5013;51.840;8.276;2024-03-08T01:55:46;39.60;;;29.60;;
9948;SDS011;5013;51.840;8.276;2024-03-08T01:58:13;37.90;;;27.83;;
9948;SDS011;5013;51.840;8.276;2024-03-08T02:00:41;38.23;;;26.70;;
9948;SDS011;5013;51.840;8.276;2024-03-08T02:03:09;38.20;;;26.97;;
9948;SDS011;5013;51.840;8.276;2024-03-08T02:05:35;38.17;;;28.07;;
9948;SDS011;5013;51.840;8.276;2024-03-08T02:08:03;39.87;;;29.90;;
9948;SDS011;5013;51.840;8.276;2024-03-08T02:10:32;42.27;;;29.53;;
9948;SDS011;5013;51.840;8.276;2024-03-08T02:12:58;36.40;;;29.00;;
9948;SDS011;5013;51.840;8.276;2024-03-08T02:15:24;39.60;;;29.97;;
9948;SDS011;5013;51.840;8.276;2024-03-08T02:17:51;38.13;;;29.43;;
9948;SDS011;5013;51.840;8.276;2024-03-08T02:20:18;37.83;;;28.27;;
9948;SDS011;5013;51.840;8.276;2024-03-08T02:22:44;41.20;;;29.20;;
9948;SDS011;5013;51.840;8.276;2024-03-08T02:25:10;40.23;;;29.43;;
9948;SDS011;5013;51.840;8.276;2024-03-08T02:27:36;38.93;;;29.83;;
9948;SDS011;5013;51.840;8.276;2024-03-08T02:30:02;38.40;;;28.03;;
9948;SDS011;5013;51.840;8.276;2024-03-08T02:32:28;41.43;;;29.73;;
9948;SDS011;5013;51.840;8.276;2024-03-08T02:34:58;35.43;;;28.30;;
9948;SDS011;5013;51.840;8.276;2024-03-08T02:37:24;36.33;;;28.67;;
9948;SDS011;5013;51.840;8.276;2024-03-08T02:39:51;43.10;;;29.67;;
9948;SDS011;5013;51.840;8.276;2024-03-08T02:42:16;43.17;;;30.00;;
9948;SDS011;5013;51.840;8.276;2024-03-08T02:44:43;42.10;;;29.87;;
9948;SDS011;5013;51.840;8.276;2024-03-08T02:47:11;40.80;;;29.60;;
9948;SDS011;5013;51.840;8.276;2024-03-08T02:49:36;40.33;;;29.83;;
9948;SDS011;5013;51.840;8.276;2024-03-08T02:52:03;40.13;;;29.87;;
9948;SDS011;5013;51.840;8.276;2024-03-08T02:54:29;43.73;;;30.73;;
9948;SDS011;5013;51.840;8.276;2024-03-08T02:56:55;42.93;;;30.53;;
9948;SDS011;5013;51.840;8.276;2024-03-08T02:59:21;38.67;;;30.07;;
9948;SDS011;5013;51.840;8.276;2024-03-08T03:01:47;43.70;;;30.30;;
9948;SDS011;5013;51.840;8.276;2024-03-08T03:04:12;39.47;;;30.30;;
9948;SDS011;5013;51.840;8.276;2024-03-08T03:06:38;41.97;;;29.93;;
9948;SDS011;5013;51.840;8.276;2024-03-08T03:09:03;41.27;;;30.57;;
9948;SDS011;5013;51.840;8.276;2024-03-08T03:11:31;46.23;;;30.73;;
9948;SDS011;5013;51.840;8.276;2024-03-08T03:13:56;41.17;;;30.30;;
9948;SDS011;5013;51.840;8.276;2024-03-08T03:16:22;40.30;;;29.37;;
9948;SDS011;5013;51.840;8.276;2024-03-08T03:18:47;40.43;;;29.20;;
9948;SDS011;5013;51.840;8.276;2024-03-08T03:21:14;40.93;;;29.17;;
9948;SDS011;5013;51.840;8.276;2024-03-08T03:23:40;45.03;;;31.53;;
9948;SDS011;5013;51.840;8.276;2024-03-08T03:26:07;42.30;;;30.73;;
9948;SDS011;5013;51.840;8.276;2024-03-08T03:28:33;45.97;;;31.07;;
9948;SDS011;5013;51.840;8.276;2024-03-08T03:30:59;43.93;;;31.77;;
9948;SDS011;5013;51.840;8.276;2024-03-08T03:33:24;40.57;;;30.03;;
9948;SDS011;5013;51.840;8.276;2024-03-08T03:35:50;42.90;;;31.90;;
9948;SDS011;5013;51.840;8.276;2024-03-08T03:38:17;42.03;;;31.63;;
9948;SDS011;5013;51.840;8.276;2024-03-08T03:40:44;48.27;;;32.63;;
9948;SDS011;5013;51.840;8.276;2024-03-08T03:43:11;41.97;;;30.07;;
9948;SDS011;5013;51.840;8.276;2024-03-08T03:45:36;40.37;;;30.60;;
9948;SDS011;5013;51.840;8.276;2024-03-08T03:48:04;49.87;;;30.80;;
9948;SDS011;5013;51.840;8.276;2024-03-08T03:50:34;43.67;;;30.10;;
9948;SDS011;5013;51.840;8.276;2024-03-08T03:53:00;41.33;;;29.80;;
9948;SDS011;5013;51.840;8.276;2024-03-08T03:55:26;41.43;;;30.70;;
9948;SDS011;5013;51.840;8.276;2024-03-08T03:57:52;45.53;;;32.23;;
9948;SDS011;5013;51.840;8.276;2024-03-08T04:00:18;44.60;;;32.87;;
9948;SDS011;5013;51.840;8.276;2024-03-08T04:02:43;40.67;;;31.50;;
9948;SDS011;5013;51.840;8.276;2024-03-08T04:05:09;46.43;;;34.30;;
9948;SDS011;5013;51.840;8.276;2024-03-08T04:07:36;51.30;;;33.87;;
9948;SDS011;5013;51.840;8.276;2024-03-08T04:10:02;48.00;;;33.40;;
9948;SDS011;5013;51.840;8.276;2024-03-08T04:12:28;43.23;;;31.57;;
9948;SDS011;5013;51.840;8.276;2024-03-08T04:14:55;46.27;;;32.37;;
9948;SDS011;5013;51.840;8.276;2024-03-08T04:17:20;44.13;;;32.37;;
9948;SDS011;5013;51.840;8.276;2024-03-08T04:19:46;43.53;;;32.53;;
9948;SDS011;5013;51.840;8.276;2024-03-08T04:22:13;47.40;;;33.17;;
9948;SDS011;5013;51.840;8.276;2024-03-08T04:24:39;42.93;;;31.67;;
9948;SDS011;5013;51.840;8.276;2024-03-08T04:27:05;41.97;;;32.37;;
9948;SDS011;5013;51.840;8.276;2024-03-08T04:29:31;46.30;;;33.90;;
9948;SDS011;5013;51.840;8.276;2024-03-08T04:31:57;45.80;;;32.93;;
9948;SDS011;5013;51.840;8.276;2024-03-08T04:34:23;46.93;;;32.37;;
9948;SDS011;5013;51.840;8.276;2024-03-08T04:36:49;47.23;;;33.70;;
9948;SDS011;5013;51.840;8.276;2024-03-08T04:39:14;43.53;;;32.80;;
9948;SDS011;5013;51.840;8.276;2024-03-08T04:41:40;48.40;;;33.40;;
9948;SDS011;5013;51.840;8.276;2024-03-08T04:44:08;45.03;;;33.13;;
9948;SDS011;5013;51.840;8.276;2024-03-08T04:46:34;47.53;;;34.30;;
9948;SDS011;5013;51.840;8.276;2024-03-08T04:49:00;48.40;;;34.13;;
9948;SDS011;5013;51.840;8.276;2024-03-08T04:51:26;47.07;;;34.77;;
9948;SDS011;5013;51.840;8.276;2024-03-08T04:53:51;46.47;;;33.60;;
9948;SDS011;5013;51.840;8.276;2024-03-08T04:56:17;45.50;;;33.03;;
9948;SDS011;5013;51.840;8.276;2024-03-08T04:58:44;45.13;;;34.07;;
9948;SDS011;5013;51.840;8.276;2024-03-08T05:01:12;50.33;;;33.03;;
9948;SDS011;5013;51.840;8.276;2024-03-08T05:03:37;47.00;;;32.63;;
9948;SDS011;5013;51.840;8.276;2024-03-08T05:06:04;50.87;;;36.07;;
9948;SDS011;5013;51.840;8.276;2024-03-08T05:08:29;51.63;;;33.73;;
9948;SDS011;5013;51.840;8.276;2024-03-08T05:10:55;44.00;;;32.50;;
9948;SDS011;5013;51.840;8.276;2024-03-08T05:13:21;50.80;;;35.07;;
9948;SDS011;5013;51.840;8.276;2024-03-08T05:15:48;44.97;;;33.30;;
9948;SDS011;5013;51.840;8.276;2024-03-08T05:18:15;46.50;;;35.10;;
9948;SDS011;5013;51.840;8.276;2024-03-08T05:20:40;46.17;;;32.80;;
9948;SDS011;5013;51.840;8.276;2024-03-08T05:23:06;48.47;;;32.97;;
9948;SDS011;5013;51.840;8.276;2024-03-08T05:25:33;47.37;;;33.07;;
9948;SDS011;5013;51.840;8.276;2024-03-08T05:27:58;46.63;;;33.23;;
9948;SDS011;5013;51.840;8.276;2024-03-08T05:30:24;48.20;;;33.73;;
9948;SDS011;5013;51.840;8.276;2024-03-08T05:32:49;48.57;;;34.33;;
9948;SDS011;5013;51.840;8.276;2024-03-08T05:35:15;47.23;;;33.53;;
9948;SDS011;5013;51.840;8.276;2024-03-08T05:37:42;50.17;;;34.10;;
9948;SDS011;5013;51.840;8.276;2024-03-08T05:40:08;51.30;;;34.07;;
9948;SDS011;5013;51.840;8.276;2024-03-08T05:42:36;50.13;;;34.53;;
9948;SDS011;5013;51.840;8.276;2024-03-08T05:45:05;48.90;;;34.37;;
9948;SDS011;5013;51.840;8.276;2024-03-08T05:47:31;49.90;;;34.90;;
9948;SDS011;5013;51.840;8.276;2024-03-08T05:49:58;47.63;;;34.07;;
9948;SDS011;5013;51.840;8.276;2024-03-08T05:52:24;48.63;;;33.97;;
9948;SDS011;5013;51.840;8.276;2024-03-08T05:54:50;47.63;;;33.80;;
9948;SDS011;5013;51.840;8.276;2024-03-08T05:57:16;50.57;;;35.57;;
9948;SDS011;5013;51.840;8.276;2024-03-08T05:59:42;46.90;;;33.97;;
9948;SDS011;5013;51.840;8.276;2024-03-08T06:02:08;48.57;;;34.70;;
9948;SDS011;5013;51.840;8.276;2024-03-08T06:04:33;51.70;;;35.17;;
9948;SDS011;5013;51.840;8.276;2024-03-08T06:07:00;50.60;;;34.87;;
9948;SDS011;5013;51.840;8.276;2024-03-08T06:09:28;56.80;;;36.57;;
9948;SDS011;5013;51.840;8.276;2024-03-08T06:11:54;50.90;;;34.30;;
9948;SDS011;5013;51.840;8.276;2024-03-08T06:14:19;49.67;;;34.40;;
9948;SDS011;5013;51.840;8.276;2024-03-08T06:16:45;52.97;;;35.40;;
9948;SDS011;5013;51.840;8.276;2024-03-08T06:19:11;52.90;;;35.63;;
9948;SDS011;5013;51.840;8.276;2024-03-08T06:21:38;47.80;;;34.27;;
9948;SDS011;5013;51.840;8.276;2024-03-08T06:24:04;49.90;;;34.27;;
9948;SDS011;5013;51.840;8.276;2024-03-08T06:26:30;52.70;;;35.83;;
9948;SDS011;5013;51.840;8.276;2024-03-08T06:28:56;48.07;;;33.77;;
9948;SDS011;5013;51.840;8.276;2024-03-08T06:31:22;54.43;;;36.83;;
9948;SDS011;5013;51.840;8.276;2024-03-08T06:33:48;48.47;;;33.50;;
9948;SDS011;5013;51.840;8.276;2024-03-08T06:36:19;53.73;;;37.73;;
9948;SDS011;5013;51.840;8.276;2024-03-08T06:38:46;50.80;;;34.57;;
9948;SDS011;5013;51.840;8.276;2024-03-08T06:41:12;48.37;;;33.90;;
9948;SDS011;5013;51.840;8.276;2024-03-08T06:43:44;48.33;;;33.43;;
9948;SDS011;5013;51.840;8.276;2024-03-08T06:46:10;49.57;;;34.77;;
9948;SDS011;5013;51.840;8.276;2024-03-08T06:48:37;52.33;;;35.33;;
9948;SDS011;5013;51.840;8.276;2024-03-08T06:51:03;53.30;;;35.80;;
9948;SDS011;5013;51.840;8.276;2024-03-08T06:53:30;54.73;;;35.70;;
9948;SDS011;5013;51.840;8.276;2024-03-08T06:55:56;49.07;;;34.77;;
9948;SDS011;5013;51.840;8.276;2024-03-08T06:58:25;48.60;;;33.13;;
9948;SDS011;5013;51.840;8.276;2024-03-08T07:00:50;47.70;;;34.13;;
9948;SDS011;5013;51.840;8.276;2024-03-08T07:03:17;48.17;;;35.30;;
9948;SDS011;5013;51.840;8.276;2024-03-08T07:05:43;44.73;;;33.40;;
9948;SDS011;5013;51.840;8.276;2024-03-08T07:08:09;48.37;;;33.73;;
9948;SDS011;5013;51.840;8.276;2024-03-08T07:10:34;49.30;;;35.27;;
9948;SDS011;5013;51.840;8.276;2024-03-08T07:13:02;52.73;;;36.37;;
9948;SDS011;5013;51.840;8.276;2024-03-08T07:15:27;57.93;;;36.77;;
9948;SDS011;5013;51.840;8.276;2024-03-08T07:17:53;52.20;;;33.33;;
9948;SDS011;5013;51.840;8.276;2024-03-08T07:20:19;52.77;;;35.77;;
9948;SDS011;5013;51.840;8.276;2024-03-08T07:22:46;50.93;;;35.23;;
9948;SDS011;5013;51.840;8.276;2024-03-08T07:25:18;48.00;;;33.93;;
9948;SDS011;5013;51.840;8.276;2024-03-08T07:27:48;48.37;;;33.37;;
9948;SDS011;5013;51.840;8.276;2024-03-08T07:30:16;50.13;;;34.13;;
9948;SDS011;5013;51.840;8.276;2024-03-08T07:33:00;47.87;;;35.07;;
9948;SDS011;5013;51.840;8.276;2024-03-08T07:35:27;49.53;;;33.93;;
9948;SDS011;5013;51.840;8.276;2024-03-08T07:37:53;53.43;;;36.27;;
9948;SDS011;5013;51.840;8.276;2024-03-08T07:40:24;51.80;;;35.67;;
9948;SDS011;5013;51.840;8.276;2024-03-08T07:42:50;48.27;;;35.03;;
9948;SDS011;5013;51.840;8.276;2024-03-08T07:45:16;52.63;;;36.57;;
9948;SDS011;5013;51.840;8.276;2024-03-08T07:47:42;48.93;;;35.00;;
9948;SDS011;5013;51.840;8.276;2024-03-08T07:50:08;54.17;;;36.47;;
9948;SDS011;5013;51.840;8.276;2024-03-08T07:52:34;46.20;;;34.37;;
9948;SDS011;5013;51.840;8.276;2024-03-08T07:55:01;48.87;;;36.30;;
9948;SDS011;5013;51.840;8.276;2024-03-08T07:57:27;52.07;;;35.53;;
9948;SDS011;5013;51.840;8.276;2024-03-08T07:59:52;49.73;;;35.23;;
9948;SDS011;5013;51.840;8.276;2024-03-08T08:02:18;51.13;;;35.43;;
9948;SDS011;5013;51.840;8.276;2024-03-08T08:04:43;46.40;;;33.20;;
9948;SDS011;5013;51.840;8.276;2024-03-08T08:07:10;48.63;;;34.47;;
9948;SDS011;5013;51.840;8.276;2024-03-08T08:09:36;47.07;;;34.10;;
9948;SDS011;5013;51.840;8.276;2024-03-08T08:12:02;48.93;;;35.67;;
9948;SDS011;5013;51.840;8.276;2024-03-08T08:14:29;44.90;;;34.60;;
9948;SDS011;5013;51.840;8.276;2024-03-08T08:16:55;46.07;;;34.60;;
9948;SDS011;5013;51.840;8.276;2024-03-08T08:19:22;40.20;;;31.67;;
9948;SDS011;5013;51.840;8.276;2024-03-08T08:21:48;43.13;;;32.60;;
9948;SDS011;5013;51.840;8.276;2024-03-08T08:24:13;40.20;;;32.50;;
9948;SDS011;5013;51.840;8.276;2024-03-08T08:26:39;48.07;;;33.80;;
9948;SDS011;5013;51.840;8.276;2024-03-08T08:29:05;43.00;;;32.00;;
9948;SDS011;5013;51.840;8.276;2024-03-08T08:31:32;46.13;;;33.80;;
9948;SDS011;5013;51.840;8.276;2024-03-08T08:33:58;45.80;;;33.27;;
9948;SDS011;5013;51.840;8.276;2024-03-08T08:36:24;45.20;;;33.40;;
9948;SDS011;5013;51.840;8.276;2024-03-08T08:38:50;49.00;;;34.13;;
9948;SDS011;5013;51.840;8.276;2024-03-08T08:41:19;44.57;;;33.07;;
9948;SDS011;5013;51.840;8.276;2024-03-08T08:43:44;48.17;;;35.37;;
9948;SDS011;5013;51.840;8.276;2024-03-08T08:46:10;42.63;;;31.57;;
9948;SDS011;5013;51.840;8.276;2024-03-08T08:48:39;47.13;;;33.13;;
9948;SDS011;5013;51.840;8.276;2024-03-08T08:51:11;41.87;;;32.70;;
9948;SDS011;5013;51.840;8.276;2024-03-08T08:53:37;43.93;;;31.83;;
9948;SDS011;5013;51.840;8.276;2024-03-08T08:56:08;42.10;;;31.50;;
9948;SDS011;5013;51.840;8.276;2024-03-08T08:58:34;41.10;;;31.97;;
9948;SDS011;5013;51.840;8.276;2024-03-08T09:01:00;44.70;;;32.17;;
9948;SDS011;5013;51.840;8.276;2024-03-08T09:03:26;46.27;;;32.17;;
9948;SDS011;5013;51.840;8.276;2024-03-08T09:05:53;42.30;;;32.47;;
9948;SDS011;5013;51.840;8.276;2024-03-08T09:08:18;40.80;;;32.30;;
9948;SDS011;5013;51.840;8.276;2024-03-08T09:10:44;42.37;;;31.33;;
9948;SDS011;5013;51.840;8.276;2024-03-08T09:13:10;40.40;;;30.80;;
9948;SDS011;5013;51.840;8.276;2024-03-08T09:15:38;44.60;;;31.63;;
9948;SDS011;5013;51.840;8.276;2024-03-08T09:18:05;47.63;;;30.93;;
9948;SDS011;5013;51.840;8.276;2024-03-08T09:20:31;36.27;;;29.07;;
9948;SDS011;5013;51.840;8.276;2024-03-08T09:22:57;37.93;;;29.70;;
9948;SDS011;5013;51.840;8.276;2024-03-08T09:25:23;44.47;;;30.97;;
9948;SDS011;5013;51.840;8.276;2024-03-08T09:27:48;38.80;;;30.40;;
9948;SDS011;5013;51.840;8.276;2024-03-08T09:30:15;40.87;;;31.40;;
9948;SDS011;5013;51.840;8.276;2024-03-08T09:32:41;41.90;;;31.40;;
9948;SDS011;5013;51.840;8.276;2024-03-08T09:35:08;38.37;;;30.33;;
9948;SDS011;5013;51.840;8.276;2024-03-08T09:37:34;36.00;;;29.77;;
9948;SDS011;5013;51.840;8.276;2024-03-08T09:40:00;40.30;;;30.33;;
9948;SDS011;5013;51.840;8.276;2024-03-08T09:42:29;38.03;;;29.60;;
9948;SDS011;5013;51.840;8.276;2024-03-08T09:44:56;41.10;;;28.37;;
9948;SDS011;5013;51.840;8.276;2024-03-08T09:47:22;39.67;;;30.23;;
9948;SDS011;5013;51.840;8.276;2024-03-08T09:49:54;35.97;;;28.53;;
9948;SDS011;5013;51.840;8.276;2024-03-08T09:52:19;36.27;;;28.57;;
9948;SDS011;5013;51.840;8.276;2024-03-08T09:54:45;40.30;;;28.73;;
9948;SDS011;5013;51.840;8.276;2024-03-08T09:57:11;37.60;;;27.97;;
9948;SDS011;5013;51.840;8.276;2024-03-08T09:59:37;33.90;;;27.43;;
9948;SDS011;5013;51.840;8.276;2024-03-08T10:02:03;32.93;;;28.00;;
9948;SDS011;5013;51.840;8.276;2024-03-08T10:04:29;34.43;;;27.97;;
9948;SDS011;5013;51.840;8.276;2024-03-08T10:06:58;33.47;;;27.87;;
9948;SDS011;5013;51.840;8.276;2024-03-08T10:09:25;38.13;;;29.27;;
9948;SDS011;5013;51.840;8.276;2024-03-08T10:11:56;37.67;;;29.47;;
9948;SDS011;5013;51.840;8.276;2024-03-08T10:14:22;37.20;;;27.70;;
9948;SDS011;5013;51.840;8.276;2024-03-08T10:16:49;35.03;;;26.67;;
9948;SDS011;5013;51.840;8.276;2024-03-08T10:19:14;35.53;;;26.40;;
9948;SDS011;5013;51.840;8.276;2024-03-08T10:21:50;29.20;;;24.80;;
9948;SDS011;5013;51.840;8.276;2024-03-08T10:24:19;31.63;;;26.03;;
9948;SDS011;5013;51.840;8.276;2024-03-08T10:26:45;31.73;;;26.27;;
9948;SDS011;5013;51.840;8.276;2024-03-08T10:29:10;31.67;;;25.57;;
9948;SDS011;5013;51.840;8.276;2024-03-08T10:31:42;31.20;;;24.83;;
9948;SDS011;5013;51.840;8.276;2024-03-08T10:34:09;31.47;;;25.73;;
9948;SDS011;5013;51.840;8.276;2024-03-08T10:36:35;31.17;;;25.40;;
9948;SDS011;5013;51.840;8.276;2024-03-08T10:39:03;31.13;;;25.83;;
9948;SDS011;5013;51.840;8.276;2024-03-08T10:41:34;32.70;;;24.40;;
9948;SDS011;5013;51.840;8.276;2024-03-08T10:46:48;29.97;;;25.47;;
9948;SDS011;5013;51.840;8.276;2024-03-08T10:49:20;32.83;;;26.10;;
9948;SDS011;5013;51.840;8.276;2024-03-08T10:52:10;29.40;;;24.43;;
9948;SDS011;5013;51.840;8.276;2024-03-08T10:54:37;29.10;;;25.30;;
9948;SDS011;5013;51.840;8.276;2024-03-08T10:57:05;29.93;;;25.13;;
9948;SDS011;5013;51.840;8.276;2024-03-08T10:59:31;30.53;;;25.50;;
9948;SDS011;5013;51.840;8.276;2024-03-08T11:01:59;30.53;;;23.93;;
9948;SDS011;5013;51.840;8.276;2024-03-08T11:04:24;29.47;;;24.33;;
9948;SDS011;5013;51.840;8.276;2024-03-08T11:06:50;28.47;;;23.50;;
9948;SDS011;5013;51.840;8.276;2024-03-08T11:09:37;32.00;;;23.87;;
9948;SDS011;5013;51.840;8.276;2024-03-08T11:14:50;26.63;;;23.30;;
9948;SDS011;5013;51.840;8.276;2024-03-08T11:17:21;26.73;;;22.10;;
9948;SDS011;5013;51.840;8.276;2024-03-08T11:19:56;26.20;;;22.50;;
9948;SDS011;5013;51.840;8.276;2024-03-08T11:22:27;24.03;;;21.43;;
9948;SDS011;5013;51.840;8.276;2024-03-08T11:25:01;31.07;;;21.47;;
9948;SDS011;5013;51.840;8.276;2024-03-08T11:27:29;25.10;;;20.93;;
9948;SDS011;5013;51.840;8.276;2024-03-08T11:30:07;28.53;;;21.33;;
9948;SDS011;5013;51.840;8.276;2024-03-08T11:32:36;26.03;;;21.27;;
9948;SDS011;5013;51.840;8.276;2024-03-08T11:35:06;27.43;;;22.83;;
9948;SDS011;5013;51.840;8.276;2024-03-08T11:37:43;31.37;;;23.60;;
9948;SDS011;5013;51.840;8.276;2024-03-08T11:40:13;28.10;;;22.87;;
9948;SDS011;5013;51.840;8.276;2024-03-08T11:42:48;27.20;;;22.60;;
9948;SDS011;5013;51.840;8.276;2024-03-08T11:45:17;25.07;;;21.57;;
9948;SDS011;5013;51.840;8.276;2024-03-08T11:47:46;27.30;;;24.20;;
9948;SDS011;5013;51.840;8.276;2024-03-08T11:50:15;25.40;;;22.80;;
9948;SDS011;5013;51.840;8.276;2024-03-08T11:52:41;27.20;;;20.97;;
9948;SDS011;5013;51.840;8.276;2024-03-08T11:55:08;23.97;;;20.97;;
9948;SDS011;5013;51.840;8.276;2024-03-08T11:57:34;25.77;;;21.10;;
9948;SDS011;5013;51.840;8.276;2024-03-08T12:00:01;27.67;;;20.70;;
9948;SDS011;5013;51.840;8.276;2024-03-08T12:02:32;28.53;;;21.67;;
9948;SDS011;5013;51.840;8.276;2024-03-08T12:05:03;27.73;;;21.50;;
9948;SDS011;5013;51.840;8.276;2024-03-08T12:07:35;28.77;;;21.30;;
9948;SDS011;5013;51.840;8.276;2024-03-08T12:10:20;25.47;;;21.20;;
9948;SDS011;5013;51.840;8.276;2024-03-08T12:12:47;25.33;;;21.23;;
9948;SDS011;5013;51.840;8.276;2024-03-08T12:15:15;28.87;;;21.63;;
9948;SDS011;5013;51.840;8.276;2024-03-08T12:17:42;27.37;;;21.87;;
9948;SDS011;5013;51.840;8.276;2024-03-08T12:20:16;25.17;;;22.33;;
9948;SDS011;5013;51.840;8.276;2024-03-08T12:22:42;24.27;;;20.87;;
9948;SDS011;5013;51.840;8.276;2024-03-08T12:25:10;25.90;;;22.50;;
9948;SDS011;5013;51.840;8.276;2024-03-08T12:27:37;27.80;;;22.47;;
9948;SDS011;5013;51.840;8.276;2024-03-08T12:32:56;24.40;;;21.80;;
9948;SDS011;5013;51.840;8.276;2024-03-08T12:35:28;27.60;;;21.73;;
9948;SDS011;5013;51.840;8.276;2024-03-08T12:37:56;25.13;;;20.97;;
9948;SDS011;5013;51.840;8.276;2024-03-08T12:40:26;27.20;;;21.70;;
9948;SDS011;5013;51.840;8.276;2024-03-08T12:42:53;27.23;;;21.93;;
9948;SDS011;5013;51.840;8.276;2024-03-08T12:45:22;24.40;;;21.80;;
9948;SDS011;5013;51.840;8.276;2024-03-08T12:47:51;27.80;;;21.73;;
9948;SDS011;5013;51.840;8.276;2024-03-08T12:50:18;26.13;;;21.50;;
9948;SDS011;5013;51.840;8.276;2024-03-08T12:52:44;27.57;;;22.33;;
9948;SDS011;5013;51.840;8.276;2024-03-08T12:55:09;26.67;;;21.67;;
9948;SDS011;5013;51.840;8.276;2024-03-08T12:57:35;27.00;;;22.63;;
9948;SDS011;5013;51.840;8.276;2024-03-08T13:00:03;28.10;;;21.87;;
9948;SDS011;5013;51.840;8.276;2024-03-08T13:02:29;25.23;;;21.40;;
9948;SDS011;5013;51.840;8.276;2024-03-08T13:04:57;26.43;;;23.53;;
9948;SDS011;5013;51.840;8.276;2024-03-08T13:07:23;26.40;;;22.43;;
9948;SDS011;5013;51.840;8.276;2024-03-08T13:09:51;28.77;;;21.67;;
9948;SDS011;5013;51.840;8.276;2024-03-08T13:12:18;25.80;;;22.13;;
9948;SDS011;5013;51.840;8.276;2024-03-08T13:14:45;25.83;;;22.17;;
9948;SDS011;5013;51.840;8.276;2024-03-08T13:17:11;25.50;;;21.97;;
9948;SDS011;5013;51.840;8.276;2024-03-08T13:19:39;24.50;;;21.67;;
9948;SDS011;5013;51.840;8.276;2024-03-08T13:22:07;26.27;;;22.53;;
9948;SDS011;5013;51.840;8.276;2024-03-08T13:24:37;29.97;;;22.67;;
9948;SDS011;5013;51.840;8.276;2024-03-08T13:27:06;28.50;;;24.03;;
9948;SDS011;5013;51.840;8.276;2024-03-08T13:29:44;27.80;;;22.20;;
9948;SDS011;5013;51.840;8.276;2024-03-08T13:32:11;26.47;;;22.57;;
9948;SDS011;5013;51.840;8.276;2024-03-08T13:34:37;28.97;;;24.37;;
9948;SDS011;5013;51.840;8.276;2024-03-08T13:37:06;27.17;;;22.90;;
9948;SDS011;5013;51.840;8.276;2024-03-08T13:39:31;30.13;;;24.37;;
9948;SDS011;5013;51.840;8.276;2024-03-08T13:42:06;30.57;;;23.67;;
9948;SDS011;5013;51.840;8.276;2024-03-08T13:44:34;27.67;;;22.70;;
9948;SDS011;5013;51.840;8.276;2024-03-08T13:47:01;27.07;;;22.27;;
9948;SDS011;5013;51.840;8.276;2024-03-08T13:49:29;27.20;;;22.90;;
9948;SDS011;5013;51.840;8.276;2024-03-08T13:51:55;30.80;;;23.17;;
9948;SDS011;5013;51.840;8.276;2024-03-08T13:54:23;27.63;;;24.33;;
9948;SDS011;5013;51.840;8.276;2024-03-08T13:56:49;30.13;;;23.63;;
9948;SDS011;5013;51.840;8.276;2024-03-08T13:59:15;30.10;;;23.63;;
9948;SDS011;5013;51.840;8.276;2024-03-08T14:01:40;28.73;;;23.53;;
9948;SDS011;5013;51.840;8.276;2024-03-08T14:04:08;25.70;;;22.17;;
9948;SDS011;5013;51.840;8.276;2024-03-08T14:06:34;26.73;;;23.37;;
9948;SDS011;5013;51.840;8.276;2024-03-08T14:09:00;27.23;;;22.43;;
9948;SDS011;5013;51.840;8.276;2024-03-08T14:11:26;28.90;;;22.93;;
9948;SDS011;5013;51.840;8.276;2024-03-08T14:13:52;26.80;;;23.73;;
9948;SDS011;5013;51.840;8.276;2024-03-08T14:16:18;27.70;;;23.37;;
9948;SDS011;5013;51.840;8.276;2024-03-08T14:18:44;28.20;;;23.37;;
9948;SDS011;5013;51.840;8.276;2024-03-08T14:21:10;27.60;;;23.57;;
9948;SDS011;5013;51.840;8.276;2024-03-08T14:23:35;29.93;;;24.00;;
9948;SDS011;5013;51.840;8.276;2024-03-08T14:26:01;30.13;;;23.93;;
9948;SDS011;5013;51.840;8.276;2024-03-08T14:28:32;32.17;;;24.30;;
9948;SDS011;5013;51.840;8.276;2024-03-08T14:30:57;30.93;;;24.00;;
9948;SDS011;5013;51.840;8.276;2024-03-08T14:33:23;28.30;;;24.23;;
9948;SDS011;5013;51.840;8.276;2024-03-08T14:35:50;29.63;;;24.07;;
9948;SDS011;5013;51.840;8.276;2024-03-08T14:38:16;30.57;;;23.63;;
9948;SDS011;5013;51.840;8.276;2024-03-08T14:40:42;28.87;;;22.50;;
9948;SDS011;5013;51.840;8.276;2024-03-08T14:43:11;27.87;;;23.00;;
9948;SDS011;5013;51.840;8.276;2024-03-08T14:45:38;27.63;;;23.67;;
9948;SDS011;5013;51.840;8.276;2024-03-08T14:48:04;31.00;;;23.10;;
9948;SDS011;5013;51.840;8.276;2024-03-08T14:50:30;29.40;;;22.90;;
9948;SDS011;5013;51.840;8.276;2024-03-08T14:52:57;25.80;;;22.03;;
9948;SDS011;5013;51.840;8.276;2024-03-08T14:55:23;29.83;;;22.03;;